sensor_id;sensor_type;location;lat;lon;timestamp;pressure;altitude;pressure_sealevel;temperature;humidity
5814;BME280;2933;52.302;8.134;2024-01-10T00:01:39;80447.03;;;-148.04;74.84
5814;BME280;2933;52.302;8.134;2024-01-10T00:06:41;80437.06;;;-148.04;74.93
5814;BME280;2933;52.302;8.134;2024-01-10T00:11:44;80431.09;;;-148.04;74.63
5814;BME280;2933;52.302;8.134;2024-01-10T00:16:46;80435.09;;;-148.04;74.64
5814;BME280;2933;52.302;8.134;2024-01-10T00:21:47;80431.09;;;-148.04;75.35
5814;BME280;2933;52.302;8.134;2024-01-10T00:26:50;80421.16;;;-148.04;75.35
5814;BME280;2933;52.302;8.134;2024-01-10T00:31:52;80415.19;;;-148.04;75.91
5814;BME280;2933;52.302;8.134;2024-01-10T00:36:53;80403.25;;;-148.04;76.34
5814;BME280;2933;52.302;8.134;2024-01-10T00:41:56;80413.19;;;-148.04;76.25
5814;BME280;2933;52.302;8.134;2024-01-10T00:46:58;80417.19;;;-148.04;76.76
5814;BME280;2933;52.302;8.134;2024-01-10T00:52:00;80423.16;;;-148.04;77.88
5814;BME280;2933;52.302;8.134;2024-01-10T00:57:03;80415.19;;;-148.04;78.33
5814;BME280;2933;52.302;8.134;2024-01-10T01:02:05;80421.16;;;-148.04;78.32
5814;BME280;2933;52.302;8.134;2024-01-10T01:07:06;80427.13;;;-148.04;78.84
5814;BME280;2933;52.302;8.134;2024-01-10T01:12:09;80419.16;;;-148.04;79.39
5814;BME280;2933;52.302;8.134;2024-01-10T01:17:11;80435.09;;;-148.04;80.40
5814;BME280;2933;52.302;8.134;2024-01-10T01:22:12;80453.00;;;-148.04;80.82
5814;BME280;2933;52.302;8.134;2024-01-10T01:27:15;80437.06;;;-148.04;81.73
5814;BME280;2933;52.302;8.134;2024-01-10T01:32:17;80441.06;;;-148.04;81.51
5814;BME280;2933;52.302;8.134;2024-01-10T01:37:19;80439.06;;;-148.04;82.68
5814;BME280;2933;52.302;8.134;2024-01-10T01:42:22;80441.06;;;-148.04;81.78
5814;BME280;2933;52.302;8.134;2024-01-10T01:47:24;80433.09;;;-148.04;82.09
5814;BME280;2933;52.302;8.134;2024-01-10T01:52:29;80441.06;;;-148.04;82.29
5814;BME280;2933;52.302;8.134;2024-01-10T01:57:33;80441.06;;;-148.04;82.81
5814;BME280;2933;52.302;8.134;2024-01-10T02:02:35;80447.03;;;-148.04;83.17
5814;BME280;2933;52.302;8.134;2024-01-10T02:07:37;80423.16;;;-148.04;83.91
5814;BME280;2933;52.302;8.134;2024-01-10T02:12:41;80445.03;;;-148.04;83.61
5814;BME280;2933;52.302;8.134;2024-01-10T02:17:42;80437.06;;;-148.04;84.75
5814;BME280;2933;52.302;8.134;2024-01-10T02:22:44;80429.13;;;-148.04;83.98
5814;BME280;2933;52.302;8.134;2024-01-10T02:27:47;80425.13;;;-148.04;84.60
5814;BME280;2933;52.302;8.134;2024-01-10T02:32:49;80433.09;;;-148.04;84.80
5814;BME280;2933;52.302;8.134;2024-01-10T02:37:50;80429.13;;;-148.04;85.32
5814;BME280;2933;52.302;8.134;2024-01-10T02:42:54;80425.13;;;-148.04;86.16
5814;BME280;2933;52.302;8.134;2024-01-10T02:47:55;80435.09;;;-148.04;86.00
5814;BME280;2933;52.302;8.134;2024-01-10T02:52:57;80431.09;;;-148.04;86.40
5814;BME280;2933;52.302;8.134;2024-01-10T02:58:00;80429.13;;;-148.04;86.54
5814;BME280;2933;52.302;8.134;2024-01-10T03:03:01;80417.19;;;-148.04;86.74
5814;BME280;2933;52.302;8.134;2024-01-10T03:08:04;80443.03;;;-148.04;86.63
5814;BME280;2933;52.302;8.134;2024-01-10T03:13:08;80433.09;;;-148.04;87.47
5814;BME280;2933;52.302;8.134;2024-01-10T03:18:09;80443.03;;;-148.04;87.33
5814;BME280;2933;52.302;8.134;2024-01-10T03:23:11;80437.06;;;-148.04;87.80
5814;BME280;2933;52.302;8.134;2024-01-10T03:28:16;80435.09;;;-148.04;88.17
5814;BME280;2933;52.302;8.134;2024-01-10T03:33:18;80454.97;;;-148.04;88.65
5814;BME280;2933;52.302;8.134;2024-01-10T03:38:20;80449.00;;;-148.04;88.74
5814;BME280;2933;52.302;8.134;2024-01-10T03:43:23;80445.03;;;-148.04;88.80
5814;BME280;2933;52.302;8.134;2024-01-10T03:48:24;80433.09;;;-148.04;88.69
5814;BME280;2933;52.302;8.134;2024-01-10T03:53:26;80453.00;;;-148.04;88.70
5814;BME280;2933;52.302;8.134;2024-01-10T03:58:29;80458.97;;;-148.04;89.37
5814;BME280;2933;52.302;8.134;2024-01-10T04:03:31;80468.91;;;-148.04;89.41
5814;BME280;2933;52.302;8.134;2024-01-10T04:08:33;80458.97;;;-148.04;89.02
5814;BME280;2933;52.302;8.134;2024-01-10T04:13:36;80449.00;;;-148.04;89.05
5814;BME280;2933;52.302;8.134;2024-01-10T04:18:37;80443.03;;;-148.04;88.77
5814;BME280;2933;52.302;8.134;2024-01-10T04:23:39;80441.06;;;-148.04;89.50
5814;BME280;2933;52.302;8.134;2024-01-10T04:28:42;80449.00;;;-148.04;89.67
5814;BME280;2933;52.302;8.134;2024-01-10T04:33:43;80453.00;;;-148.04;90.08
5814;BME280;2933;52.302;8.134;2024-01-10T04:38:45;80458.97;;;-148.04;90.17
5814;BME280;2933;52.302;8.134;2024-01-10T04:43:48;80478.88;;;-148.04;89.94
5814;BME280;2933;52.302;8.134;2024-01-10T04:48:49;80468.91;;;-148.04;89.76
5814;BME280;2933;52.302;8.134;2024-01-10T04:53:51;80472.91;;;-148.04;89.92
5814;BME280;2933;52.302;8.134;2024-01-10T04:58:54;80456.97;;;-148.04;90.26
5814;BME280;2933;52.302;8.134;2024-01-10T05:03:56;80460.94;;;-148.04;89.92
5814;BME280;2933;52.302;8.134;2024-01-10T05:08:58;80453.00;;;-148.04;90.03
5814;BME280;2933;52.302;8.134;2024-01-10T05:14:01;80462.94;;;-148.04;89.81
5814;BME280;2933;52.302;8.134;2024-01-10T05:19:03;80447.03;;;-148.04;89.53
5814;BME280;2933;52.302;8.134;2024-01-10T05:24:05;80456.97;;;-148.04;89.18
5814;BME280;2933;52.302;8.134;2024-01-10T05:29:08;80437.06;;;-148.04;89.53
5814;BME280;2933;52.302;8.134;2024-01-10T05:34:09;80441.06;;;-148.04;89.49
5814;BME280;2933;52.302;8.134;2024-01-10T05:39:11;80453.00;;;-148.04;89.79
5814;BME280;2933;52.302;8.134;2024-01-10T05:44:17;80439.06;;;-148.04;88.91
5814;BME280;2933;52.302;8.134;2024-01-10T05:49:19;80456.97;;;-148.04;89.08
5814;BME280;2933;52.302;8.134;2024-01-10T05:54:22;80449.00;;;-148.04;89.86
5814;BME280;2933;52.302;8.134;2024-01-10T05:59:25;80447.03;;;-148.04;88.98
5814;BME280;2933;52.302;8.134;2024-01-10T06:04:26;80449.00;;;-148.04;88.43
5814;BME280;2933;52.302;8.134;2024-01-10T06:09:30;80445.03;;;-148.04;88.30
5814;BME280;2933;52.302;8.134;2024-01-10T06:14:33;80453.00;;;-148.04;88.48
5814;BME280;2933;52.302;8.134;2024-01-10T06:19:35;80437.06;;;-148.04;88.48
5814;BME280;2933;52.302;8.134;2024-01-10T06:24:36;80458.97;;;-148.04;88.86
5814;BME280;2933;52.302;8.134;2024-01-10T06:29:40;80458.97;;;-148.04;89.13
5814;BME280;2933;52.302;8.134;2024-01-10T06:34:41;80470.91;;;-148.04;89.88
5814;BME280;2933;52.302;8.134;2024-01-10T06:39:43;80472.91;;;-148.04;89.53
5814;BME280;2933;52.302;8.134;2024-01-10T06:44:46;80462.94;;;-148.04;89.64
5814;BME280;2933;52.302;8.134;2024-01-10T06:49:48;80456.97;;;-148.04;89.24
5814;BME280;2933;52.302;8.134;2024-01-10T06:54:49;80449.00;;;-148.04;90.13
5814;BME280;2933;52.302;8.134;2024-01-10T06:59:53;80456.97;;;-148.04;89.17
5814;BME280;2933;52.302;8.134;2024-01-10T07:04:55;80464.94;;;-148.04;89.74
5814;BME280;2933;52.302;8.134;2024-01-10T07:09:56;80488.81;;;-148.04;89.76
5814;BME280;2933;52.302;8.134;2024-01-10T07:15:00;80488.81;;;-148.04;89.37
5814;BME280;2933;52.302;8.134;2024-01-10T07:20:03;80484.84;;;-148.04;88.80
5814;BME280;2933;52.302;8.134;2024-01-10T07:25:06;80482.84;;;-148.04;88.05
5814;BME280;2933;52.302;8.134;2024-01-10T07:30:10;80488.81;;;-148.04;87.43
5814;BME280;2933;52.302;8.134;2024-01-10T07:35:13;80496.78;;;-148.04;87.84
5814;BME280;2933;52.302;8.134;2024-01-10T07:40:15;80490.81;;;-148.04;88.47
5814;BME280;2933;52.302;8.134;2024-01-10T07:45:18;80490.81;;;-148.04;88.62
5814;BME280;2933;52.302;8.134;2024-01-10T07:50:20;80488.81;;;-148.04;88.83
5814;BME280;2933;52.302;8.134;2024-01-10T07:55:24;80508.72;;;-148.04;89.12
5814;BME280;2933;52.302;8.134;2024-01-10T08:00:27;80496.78;;;-148.04;89.09
5814;BME280;2933;52.302;8.134;2024-01-10T08:05:30;80484.84;;;-148.04;88.50
5814;BME280;2933;52.302;8.134;2024-01-10T08:10:32;80486.81;;;-148.04;89.03
5814;BME280;2933;52.302;8.134;2024-01-10T08:15:35;80488.81;;;-148.04;88.96
5814;BME280;2933;52.302;8.134;2024-01-10T08:20:36;80480.84;;;-148.04;88.21
5814;BME280;2933;52.302;8.134;2024-01-10T08:25:38;80478.88;;;-148.04;88.16
5814;BME280;2933;52.302;8.134;2024-01-10T08:30:42;80492.78;;;-148.04;89.26
5814;BME280;2933;52.302;8.134;2024-01-10T08:35:44;80472.91;;;-148.04;89.60
5814;BME280;2933;52.302;8.134;2024-01-10T08:40:46;80468.91;;;-148.04;89.62
5814;BME280;2933;52.302;8.134;2024-01-10T08:45:49;80468.91;;;-148.04;89.69
5814;BME280;2933;52.302;8.134;2024-01-10T08:50:51;80458.97;;;-148.04;89.89
5814;BME280;2933;52.302;8.134;2024-01-10T08:55:54;80460.94;;;-148.04;89.65
5814;BME280;2933;52.302;8.134;2024-01-10T09:00:57;80453.00;;;-148.04;89.38
5814;BME280;2933;52.302;8.134;2024-01-10T09:05:59;80439.06;;;-148.04;89.31
5814;BME280;2933;52.302;8.134;2024-01-10T09:11:00;80445.03;;;-148.04;89.41
5814;BME280;2933;52.302;8.134;2024-01-10T09:16:04;80433.09;;;-148.04;88.63
5814;BME280;2933;52.302;8.134;2024-01-10T09:21:06;80429.13;;;-148.04;88.96
5814;BME280;2933;52.302;8.134;2024-01-10T09:26:07;80431.09;;;-148.04;88.65
5814;BME280;2933;52.302;8.134;2024-01-10T09:31:11;80411.22;;;-148.04;88.83
5814;BME280;2933;52.302;8.134;2024-01-10T09:36:13;80403.25;;;-148.04;88.69
5814;BME280;2933;52.302;8.134;2024-01-10T09:41:15;80399.25;;;-148.04;88.43
5814;BME280;2933;52.302;8.134;2024-01-10T09:46:19;80397.28;;;-148.04;88.22
5814;BME280;2933;52.302;8.134;2024-01-10T09:51:21;80397.28;;;-148.04;87.93
5814;BME280;2933;52.302;8.134;2024-01-10T09:56:23;80377.38;;;-148.04;86.82
5814;BME280;2933;52.302;8.134;2024-01-10T10:01:27;80375.38;;;-148.04;86.29
5814;BME280;2933;52.302;8.134;2024-01-10T10:06:29;80355.50;;;-148.04;85.19
5814;BME280;2933;52.302;8.134;2024-01-10T10:11:31;80337.59;;;-148.04;84.95
5814;BME280;2933;52.302;8.134;2024-01-10T10:16:34;80327.63;;;-148.04;84.42
5814;BME280;2933;52.302;8.134;2024-01-10T10:21:35;80309.72;;;-148.04;83.38
5814;BME280;2933;52.302;8.134;2024-01-10T10:26:37;80295.78;;;-148.04;83.26
5814;BME280;2933;52.302;8.134;2024-01-10T10:31:42;80295.78;;;-148.04;82.14
5814;BME280;2933;52.302;8.134;2024-01-10T10:36:48;80275.91;;;-148.04;81.62
5814;BME280;2933;52.302;8.134;2024-01-10T10:41:50;80252.03;;;-148.04;81.33
5814;BME280;2933;52.302;8.134;2024-01-10T10:46:56;80246.06;;;-148.04;80.75
5814;BME280;2933;52.302;8.134;2024-01-10T10:52:01;80226.16;;;-148.04;80.00
5814;BME280;2933;52.302;8.134;2024-01-10T10:57:04;80206.25;;;-148.04;77.45
5814;BME280;2933;52.302;8.134;2024-01-10T11:02:09;80180.38;;;-148.04;75.91
5814;BME280;2933;52.302;8.134;2024-01-10T11:07:11;80170.44;;;-148.04;75.15
5814;BME280;2933;52.302;8.134;2024-01-10T11:12:26;80154.53;;;-148.04;73.81
5814;BME280;2933;52.302;8.134;2024-01-10T11:23:20;80100.81;;;-148.04;69.92
5814;BME280;2933;52.302;8.134;2024-01-10T11:28:31;80082.88;;;-148.04;70.25
5814;BME280;2933;52.302;8.134;2024-01-10T11:33:35;80051.06;;;-148.04;67.95
5814;BME280;2933;52.302;8.134;2024-01-10T11:38:47;80035.13;;;-148.04;67.09
5814;BME280;2933;52.302;8.134;2024-01-10T11:44:27;80027.19;;;-148.04;64.39
5814;BME280;2933;52.302;8.134;2024-01-10T11:49:30;79999.31;;;-148.04;65.12
5814;BME280;2933;52.302;8.134;2024-01-10T11:54:35;79975.44;;;-148.04;63.64
5814;BME280;2933;52.302;8.134;2024-01-10T11:59:38;79965.50;;;-148.04;61.38
5814;BME280;2933;52.302;8.134;2024-01-10T12:04:42;79949.59;;;-148.04;59.76
5814;BME280;2933;52.302;8.134;2024-01-10T12:09:43;79923.72;;;-148.04;59.95
5814;BME280;2933;52.302;8.134;2024-01-10T12:14:45;79907.81;;;-148.04;59.77
5814;BME280;2933;52.302;8.134;2024-01-10T12:19:48;79893.88;;;-148.04;58.37
5814;BME280;2933;52.302;8.134;2024-01-10T12:24:50;79877.97;;;-148.04;57.12
5814;BME280;2933;52.302;8.134;2024-01-10T12:29:52;79875.97;;;-148.04;57.40
5814;BME280;2933;52.302;8.134;2024-01-10T12:34:59;79858.06;;;-148.04;57.39
5814;BME280;2933;52.302;8.134;2024-01-10T12:40:01;79850.09;;;-148.04;57.87
5814;BME280;2933;52.302;8.134;2024-01-10T12:45:05;79866.03;;;-148.04;57.07
5814;BME280;2933;52.302;8.134;2024-01-10T12:50:09;79858.06;;;-148.04;58.96
5814;BME280;2933;52.302;8.134;2024-01-10T12:55:10;79846.13;;;-148.04;58.53
5814;BME280;2933;52.302;8.134;2024-01-10T13:00:13;79858.06;;;-148.04;58.48
5814;BME280;2933;52.302;8.134;2024-01-10T13:05:17;79868.00;;;-148.04;58.15
5814;BME280;2933;52.302;8.134;2024-01-10T13:10:18;79852.09;;;-148.04;58.18
5814;BME280;2933;52.302;8.134;2024-01-10T13:15:20;79850.09;;;-148.04;57.21
5814;BME280;2933;52.302;8.134;2024-01-10T13:20:23;79844.13;;;-148.04;57.25
5814;BME280;2933;52.302;8.134;2024-01-10T13:25:25;79832.19;;;-148.04;56.03
5814;BME280;2933;52.302;8.134;2024-01-10T13:30:27;79830.22;;;-148.04;55.30
5814;BME280;2933;52.302;8.134;2024-01-10T13:35:30;79832.19;;;-148.04;54.83
5814;BME280;2933;52.302;8.134;2024-01-10T13:40:32;79828.22;;;-148.04;55.84
5814;BME280;2933;52.302;8.134;2024-01-10T13:45:35;79840.16;;;-148.04;55.84
5814;BME280;2933;52.302;8.134;2024-01-10T13:50:38;79824.25;;;-148.04;56.95
5814;BME280;2933;52.302;8.134;2024-01-10T13:55:39;79844.13;;;-148.04;55.40
5814;BME280;2933;52.302;8.134;2024-01-10T14:00:41;79840.16;;;-148.04;54.58
5814;BME280;2933;52.302;8.134;2024-01-10T14:05:44;79860.06;;;-148.04;54.56
5814;BME280;2933;52.302;8.134;2024-01-10T14:10:46;79866.03;;;-148.04;54.39
5814;BME280;2933;52.302;8.134;2024-01-10T14:15:48;79872.00;;;-148.04;55.67
5814;BME280;2933;52.302;8.134;2024-01-10T14:20:51;79887.91;;;-148.04;56.05
5814;BME280;2933;52.302;8.134;2024-01-10T14:25:52;79895.88;;;-148.04;56.26
5814;BME280;2933;52.302;8.134;2024-01-10T14:30:54;79897.84;;;-148.04;57.05
5814;BME280;2933;52.302;8.134;2024-01-10T14:35:57;79901.84;;;-148.04;57.91
5814;BME280;2933;52.302;8.134;2024-01-10T14:40:59;79901.84;;;-148.04;57.59
5814;BME280;2933;52.302;8.134;2024-01-10T14:46:00;79911.78;;;-148.04;58.41
5814;BME280;2933;52.302;8.134;2024-01-10T14:51:04;79917.75;;;-148.04;58.58
5814;BME280;2933;52.302;8.134;2024-01-10T14:56:06;79925.72;;;-148.04;58.31
5814;BME280;2933;52.302;8.134;2024-01-10T15:01:08;79923.72;;;-148.04;59.12
5814;BME280;2933;52.302;8.134;2024-01-10T15:06:18;79933.66;;;-148.04;59.22
5814;BME280;2933;52.302;8.134;2024-01-10T15:11:25;79937.66;;;-148.04;59.40
5814;BME280;2933;52.302;8.134;2024-01-10T15:16:29;79945.59;;;-148.04;60.69
5814;BME280;2933;52.302;8.134;2024-01-10T15:21:32;79955.56;;;-148.04;60.83
5814;BME280;2933;52.302;8.134;2024-01-10T15:26:33;79969.47;;;-148.04;61.40
5814;BME280;2933;52.302;8.134;2024-01-10T15:31:35;79979.44;;;-148.04;62.07
5814;BME280;2933;52.302;8.134;2024-01-10T15:36:41;79987.38;;;-148.04;62.87
5814;BME280;2933;52.302;8.134;2024-01-10T15:41:43;79993.34;;;-148.04;63.65
5814;BME280;2933;52.302;8.134;2024-01-10T15:46:44;79993.34;;;-148.04;63.65
5814;BME280;2933;52.302;8.134;2024-01-10T15:51:47;79999.31;;;-148.04;64.07
5814;BME280;2933;52.302;8.134;2024-01-10T15:56:49;80013.25;;;-148.04;63.95
5814;BME280;2933;52.302;8.134;2024-01-10T16:01:51;80021.22;;;-148.04;65.04
5814;BME280;2933;52.302;8.134;2024-01-10T16:06:55;80023.19;;;-148.04;65.56
5814;BME280;2933;52.302;8.134;2024-01-10T16:11:57;80019.22;;;-148.04;65.75
5814;BME280;2933;52.302;8.134;2024-01-10T16:16:59;80023.19;;;-148.04;66.20
5814;BME280;2933;52.302;8.134;2024-01-10T16:22:02;80023.19;;;-148.04;66.90
5814;BME280;2933;52.302;8.134;2024-01-10T16:27:04;80027.19;;;-148.04;66.44
5814;BME280;2933;52.302;8.134;2024-01-10T16:32:06;80031.16;;;-148.04;66.71
5814;BME280;2933;52.302;8.134;2024-01-10T16:37:09;80037.13;;;-148.04;66.02
5814;BME280;2933;52.302;8.134;2024-01-10T16:42:11;80041.09;;;-148.04;65.90
5814;BME280;2933;52.302;8.134;2024-01-10T16:47:14;80061.00;;;-148.04;67.56
5814;BME280;2933;52.302;8.134;2024-01-10T16:52:17;80057.03;;;-148.04;68.56
5814;BME280;2933;52.302;8.134;2024-01-10T16:57:21;80063.00;;;-148.04;69.56
5814;BME280;2933;52.302;8.134;2024-01-10T17:02:22;80063.00;;;-148.04;70.10
5814;BME280;2933;52.302;8.134;2024-01-10T17:07:25;80064.97;;;-148.04;68.14
5814;BME280;2933;52.302;8.134;2024-01-10T17:12:27;80066.97;;;-148.04;68.39
5814;BME280;2933;52.302;8.134;2024-01-10T17:17:29;80080.91;;;-148.04;67.58
5814;BME280;2933;52.302;8.134;2024-01-10T17:22:32;80074.94;;;-148.04;66.68
5814;BME280;2933;52.302;8.134;2024-01-10T17:27:35;80088.84;;;-148.04;67.05
5814;BME280;2933;52.302;8.134;2024-01-10T17:32:37;80088.84;;;-148.04;67.80
5814;BME280;2933;52.302;8.134;2024-01-10T17:37:40;80086.88;;;-148.04;66.97
5814;BME280;2933;52.302;8.134;2024-01-10T17:42:42;80098.81;;;-148.04;67.88
5814;BME280;2933;52.302;8.134;2024-01-10T17:47:43;80116.72;;;-148.04;69.04
5814;BME280;2933;52.302;8.134;2024-01-10T17:52:47;80128.66;;;-148.04;70.33
5814;BME280;2933;52.302;8.134;2024-01-10T17:57:49;80120.69;;;-148.04;70.55
5814;BME280;2933;52.302;8.134;2024-01-10T18:02:50;80134.63;;;-148.04;71.04
5814;BME280;2933;52.302;8.134;2024-01-10T18:07:53;80136.63;;;-148.04;71.74
5814;BME280;2933;52.302;8.134;2024-01-10T18:12:55;80146.56;;;-148.04;71.63
5814;BME280;2933;52.302;8.134;2024-01-10T18:17:57;80156.50;;;-148.04;71.84
5814;BME280;2933;52.302;8.134;2024-01-10T18:23:00;80148.56;;;-148.04;71.94
5814;BME280;2933;52.302;8.134;2024-01-10T18:28:02;80150.53;;;-148.04;72.72
5814;BME280;2933;52.302;8.134;2024-01-10T18:33:04;80146.56;;;-148.04;72.04
5814;BME280;2933;52.302;8.134;2024-01-10T18:38:07;80130.66;;;-148.04;72.29
5814;BME280;2933;52.302;8.134;2024-01-10T18:43:08;80134.63;;;-148.04;72.53
5814;BME280;2933;52.302;8.134;2024-01-10T18:48:11;80148.56;;;-148.04;71.76
5814;BME280;2933;52.302;8.134;2024-01-10T18:53:13;80148.56;;;-148.04;72.92
5814;BME280;2933;52.302;8.134;2024-01-10T18:58:16;80160.50;;;-148.04;73.29
5814;BME280;2933;52.302;8.134;2024-01-10T19:03:17;80160.50;;;-148.04;72.45
5814;BME280;2933;52.302;8.134;2024-01-10T19:08:20;80154.53;;;-148.04;71.79
5814;BME280;2933;52.302;8.134;2024-01-10T19:13:22;80164.47;;;-148.04;72.28
5814;BME280;2933;52.302;8.134;2024-01-10T19:18:23;80158.50;;;-148.04;73.52
5814;BME280;2933;52.302;8.134;2024-01-10T19:23:26;80178.41;;;-148.04;73.44
5814;BME280;2933;52.302;8.134;2024-01-10T19:28:28;80180.38;;;-148.04;73.87
5814;BME280;2933;52.302;8.134;2024-01-10T19:33:30;80192.31;;;-148.04;74.84
5814;BME280;2933;52.302;8.134;2024-01-10T19:38:33;80214.22;;;-148.04;75.08
5814;BME280;2933;52.302;8.134;2024-01-10T19:43:35;80226.16;;;-148.04;75.13
5814;BME280;2933;52.302;8.134;2024-01-10T19:48:36;80228.16;;;-148.04;75.49
5814;BME280;2933;52.302;8.134;2024-01-10T19:53:39;80242.06;;;-148.04;75.47
5814;BME280;2933;52.302;8.134;2024-01-10T19:58:48;80246.06;;;-148.04;75.01
5814;BME280;2933;52.302;8.134;2024-01-10T20:03:49;80259.97;;;-148.04;76.06
5814;BME280;2933;52.302;8.134;2024-01-10T20:08:52;80258.00;;;-148.04;76.71
5814;BME280;2933;52.302;8.134;2024-01-10T20:13:54;80263.97;;;-148.04;78.89
5814;BME280;2933;52.302;8.134;2024-01-10T20:18:55;80259.97;;;-148.04;79.23
5814;BME280;2933;52.302;8.134;2024-01-10T20:24:00;80265.94;;;-148.04;79.30
5814;BME280;2933;52.302;8.134;2024-01-10T20:29:02;80275.91;;;-148.04;79.46
5814;BME280;2933;52.302;8.134;2024-01-10T20:34:03;80293.81;;;-148.04;80.66
5814;BME280;2933;52.302;8.134;2024-01-10T20:39:06;80299.78;;;-148.04;81.01
5814;BME280;2933;52.302;8.134;2024-01-10T20:44:08;80297.78;;;-148.04;81.61
5814;BME280;2933;52.302;8.134;2024-01-10T20:49:10;80319.66;;;-148.04;82.06
5814;BME280;2933;52.302;8.134;2024-01-10T20:54:13;80321.66;;;-148.04;81.89
5814;BME280;2933;52.302;8.134;2024-01-10T20:59:14;80335.59;;;-148.04;82.43
5814;BME280;2933;52.302;8.134;2024-01-10T21:04:16;80327.63;;;-148.04;82.07
5814;BME280;2933;52.302;8.134;2024-01-10T21:09:19;80351.50;;;-148.04;83.22
5814;BME280;2933;52.302;8.134;2024-01-10T21:14:20;80349.53;;;-148.04;84.63
5814;BME280;2933;52.302;8.134;2024-01-10T21:19:22;80357.47;;;-148.04;84.37
5814;BME280;2933;52.302;8.134;2024-01-10T21:24:27;80365.44;;;-148.04;85.78
5814;BME280;2933;52.302;8.134;2024-01-10T21:29:29;80365.44;;;-148.04;86.21
5814;BME280;2933;52.302;8.134;2024-01-10T21:34:30;80393.28;;;-148.04;85.66
5814;BME280;2933;52.302;8.134;2024-01-10T21:39:33;80399.25;;;-148.04;86.07
5814;BME280;2933;52.302;8.134;2024-01-10T21:44:35;80395.28;;;-148.04;86.33
5814;BME280;2933;52.302;8.134;2024-01-10T21:49:37;80411.22;;;-148.04;86.54
5814;BME280;2933;52.302;8.134;2024-01-10T21:54:41;80429.13;;;-148.04;87.13
5814;BME280;2933;52.302;8.134;2024-01-10T21:59:42;80441.06;;;-148.04;86.70
5814;BME280;2933;52.302;8.134;2024-01-10T22:04:44;80433.09;;;-148.04;87.38
5814;BME280;2933;52.302;8.134;2024-01-10T22:09:47;80437.06;;;-148.04;87.59
5814;BME280;2933;52.302;8.134;2024-01-10T22:14:49;80445.03;;;-148.04;86.56
5814;BME280;2933;52.302;8.134;2024-01-10T22:19:50;80453.00;;;-148.04;87.28
5814;BME280;2933;52.302;8.134;2024-01-10T22:24:53;80480.84;;;-148.04;87.33
5814;BME280;2933;52.302;8.134;2024-01-10T22:29:55;80478.88;;;-148.04;88.25
5814;BME280;2933;52.302;8.134;2024-01-10T22:34:56;80490.81;;;-148.04;87.86
5814;BME280;2933;52.302;8.134;2024-01-10T22:40:00;80494.78;;;-148.04;88.65
5814;BME280;2933;52.302;8.134;2024-01-10T22:45:02;80478.88;;;-148.04;89.17
5814;BME280;2933;52.302;8.134;2024-01-10T22:50:05;80482.84;;;-148.04;90.01
5814;BME280;2933;52.302;8.134;2024-01-10T22:55:09;80468.91;;;-148.04;90.79
5814;BME280;2933;52.302;8.134;2024-01-10T23:00:11;80460.94;;;-148.04;90.39
5814;BME280;2933;52.302;8.134;2024-01-10T23:05:15;80460.94;;;-148.04;90.74
5814;BME280;2933;52.302;8.134;2024-01-10T23:10:18;80466.91;;;-148.04;91.00
5814;BME280;2933;52.302;8.134;2024-01-10T23:15:22;80476.88;;;-148.04;90.59
5814;BME280;2933;52.302;8.134;2024-01-10T23:20:24;80488.81;;;-148.04;90.37
5814;BME280;2933;52.302;8.134;2024-01-10T23:25:27;80498.75;;;-148.04;90.57
5814;BME280;2933;52.302;8.134;2024-01-10T23:30:29;80500.75;;;-148.04;90.18
5814;BME280;2933;52.302;8.134;2024-01-10T23:35:31;80530.59;;;-148.04;90.17
5814;BME280;2933;52.302;8.134;2024-01-10T23:40:34;80532.59;;;-148.04;91.17
5814;BME280;2933;52.302;8.134;2024-01-10T23:45:36;80534.56;;;-148.04;91.38
5814;BME280;2933;52.302;8.134;2024-01-10T23:50:37;80530.59;;;-148.04;92.05
5814;BME280;2933;52.302;8.134;2024-01-10T23:55:40;80514.69;;;-148.04;92.57
